sensor_id;sensor_type;location;lat;lon;timestamp;P1;durP1;ratioP1;P2;durP2;ratioP2
68229;SDS011;55048;52.220;5.160;2023-08-20T00:02:16;9.10;;;1.10;;
68229;SDS011;55048;52.220;5.160;2023-08-20T00:04:44;8.27;;;1.50;;
68229;SDS011;55048;52.220;5.160;2023-08-20T00:07:11;11.02;;;1.70;;
68229;SDS011;55048;52.220;5.160;2023-08-20T00:09:37;10.02;;;1.40;;
68229;SDS011;55048;52.220;5.160;2023-08-20T00:12:02;6.05;;;1.10;;
68229;SDS011;55048;52.220;5.160;2023-08-20T00:17:18;8.13;;;1.20;;
68229;SDS011;55048;52.220;5.160;2023-08-20T00:19:44;6.45;;;0.90;;
68229;SDS011;55048;52.220;5.160;2023-08-20T00:22:10;5.68;;;1.30;;
68229;SDS011;55048;52.220;5.160;2023-08-20T00:24:36;6.40;;;1.20;;
68229;SDS011;55048;52.220;5.160;2023-08-20T00:27:01;7.10;;;1.20;;
68229;SDS011;55048;52.220;5.160;2023-08-20T00:29:27;7.90;;;1.10;;
68229;SDS011;55048;52.220;5.160;2023-08-20T00:31:52;9.00;;;1.30;;
68229;SDS011;55048;52.220;5.160;2023-08-20T00:34:17;5.25;;;1.00;;
68229;SDS011;55048;52.220;5.160;2023-08-20T00:36:43;9.27;;;1.00;;
68229;SDS011;55048;52.220;5.160;2023-08-20T00:39:08;5.85;;;0.80;;
68229;SDS011;55048;52.220;5.160;2023-08-20T00:41:34;6.30;;;1.00;;
68229;SDS011;55048;52.220;5.160;2023-08-20T00:43:59;6.90;;;1.10;;
68229;SDS011;55048;52.220;5.160;2023-08-20T00:46:26;6.07;;;1.30;;
68229;SDS011;55048;52.220;5.160;2023-08-20T00:48:51;10.13;;;1.20;;
68229;SDS011;55048;52.220;5.160;2023-08-20T00:51:17;10.63;;;1.20;;
68229;SDS011;55048;52.220;5.160;2023-08-20T00:53:44;8.10;;;1.02;;
68229;SDS011;55048;52.220;5.160;2023-08-20T00:56:10;8.85;;;1.00;;
68229;SDS011;55048;52.220;5.160;2023-08-20T00:58:37;6.40;;;1.10;;
68229;SDS011;55048;52.220;5.160;2023-08-20T01:01:02;8.20;;;1.23;;
68229;SDS011;55048;52.220;5.160;2023-08-20T01:03:28;8.10;;;0.95;;
68229;SDS011;55048;52.220;5.160;2023-08-20T01:05:56;7.47;;;1.05;;
68229;SDS011;55048;52.220;5.160;2023-08-20T01:08:36;5.93;;;1.20;;
68229;SDS011;55048;52.220;5.160;2023-08-20T01:11:12;9.95;;;0.90;;
68229;SDS011;55048;52.220;5.160;2023-08-20T01:13:50;8.30;;;0.90;;
68229;SDS011;55048;52.220;5.160;2023-08-20T01:16:20;7.68;;;1.20;;
68229;SDS011;55048;52.220;5.160;2023-08-20T01:18:46;8.70;;;1.20;;
68229;SDS011;55048;52.220;5.160;2023-08-20T01:21:23;7.25;;;1.00;;
68229;SDS011;55048;52.220;5.160;2023-08-20T01:24:05;8.13;;;1.10;;
68229;SDS011;55048;52.220;5.160;2023-08-20T01:27:08;6.43;;;1.08;;
68229;SDS011;55048;52.220;5.160;2023-08-20T01:29:44;8.50;;;1.00;;
68229;SDS011;55048;52.220;5.160;2023-08-20T01:32:10;9.40;;;1.38;;
68229;SDS011;55048;52.220;5.160;2023-08-20T01:34:37;8.98;;;0.90;;
68229;SDS011;55048;52.220;5.160;2023-08-20T01:37:04;8.95;;;1.13;;
68229;SDS011;55048;52.220;5.160;2023-08-20T01:39:30;7.18;;;0.95;;
68229;SDS011;55048;52.220;5.160;2023-08-20T01:41:55;12.65;;;1.10;;
68229;SDS011;55048;52.220;5.160;2023-08-20T01:44:20;10.23;;;1.00;;
68229;SDS011;55048;52.220;5.160;2023-08-20T01:46:46;7.80;;;1.25;;
68229;SDS011;55048;52.220;5.160;2023-08-20T01:49:11;7.22;;;1.23;;
68229;SDS011;55048;52.220;5.160;2023-08-20T01:51:37;6.57;;;1.23;;
68229;SDS011;55048;52.220;5.160;2023-08-20T01:54:02;8.55;;;1.10;;
68229;SDS011;55048;52.220;5.160;2023-08-20T01:56:28;6.47;;;0.90;;
68229;SDS011;55048;52.220;5.160;2023-08-20T01:58:54;8.27;;;0.95;;
68229;SDS011;55048;52.220;5.160;2023-08-20T02:01:19;8.43;;;0.95;;
68229;SDS011;55048;52.220;5.160;2023-08-20T02:03:45;6.65;;;1.15;;
68229;SDS011;55048;52.220;5.160;2023-08-20T02:06:10;12.80;;;1.02;;
68229;SDS011;55048;52.220;5.160;2023-08-20T02:08:36;8.75;;;1.10;;
68229;SDS011;55048;52.220;5.160;2023-08-20T02:11:02;6.85;;;1.10;;
68229;SDS011;55048;52.220;5.160;2023-08-20T02:13:28;7.82;;;1.00;;
68229;SDS011;55048;52.220;5.160;2023-08-20T02:16:00;7.72;;;0.98;;
68229;SDS011;55048;52.220;5.160;2023-08-20T02:18:27;6.25;;;0.95;;
68229;SDS011;55048;52.220;5.160;2023-08-20T02:20:53;8.55;;;1.17;;
68229;SDS011;55048;52.220;5.160;2023-08-20T02:23:18;3.42;;;0.77;;
68229;SDS011;55048;52.220;5.160;2023-08-20T02:25:44;10.05;;;1.10;;
68229;SDS011;55048;52.220;5.160;2023-08-20T02:28:09;5.97;;;0.90;;
68229;SDS011;55048;52.220;5.160;2023-08-20T02:30:43;6.53;;;1.00;;
68229;SDS011;55048;52.220;5.160;2023-08-20T02:33:12;6.13;;;1.10;;
68229;SDS011;55048;52.220;5.160;2023-08-20T02:35:40;6.28;;;1.10;;
68229;SDS011;55048;52.220;5.160;2023-08-20T02:38:06;10.13;;;1.33;;
68229;SDS011;55048;52.220;5.160;2023-08-20T02:40:32;4.53;;;0.80;;
68229;SDS011;55048;52.220;5.160;2023-08-20T02:42:57;6.45;;;1.10;;
68229;SDS011;55048;52.220;5.160;2023-08-20T02:45:23;7.82;;;1.00;;
68229;SDS011;55048;52.220;5.160;2023-08-20T02:47:50;8.93;;;1.00;;
68229;SDS011;55048;52.220;5.160;2023-08-20T02:50:17;7.78;;;0.90;;
68229;SDS011;55048;52.220;5.160;2023-08-20T02:52:43;7.75;;;1.10;;
68229;SDS011;55048;52.220;5.160;2023-08-20T02:55:08;9.10;;;1.00;;
68229;SDS011;55048;52.220;5.160;2023-08-20T02:57:34;4.55;;;0.90;;
68229;SDS011;55048;52.220;5.160;2023-08-20T02:59:59;7.45;;;1.08;;
68229;SDS011;55048;52.220;5.160;2023-08-20T03:02:25;6.35;;;1.10;;
68229;SDS011;55048;52.220;5.160;2023-08-20T03:04:50;7.82;;;0.93;;
68229;SDS011;55048;52.220;5.160;2023-08-20T03:07:16;7.47;;;1.20;;
68229;SDS011;55048;52.220;5.160;2023-08-20T03:09:41;11.73;;;1.05;;
68229;SDS011;55048;52.220;5.160;2023-08-20T03:12:06;5.95;;;0.80;;
68229;SDS011;55048;52.220;5.160;2023-08-20T03:14:32;8.48;;;1.15;;
68229;SDS011;55048;52.220;5.160;2023-08-20T03:16:58;7.13;;;0.90;;
68229;SDS011;55048;52.220;5.160;2023-08-20T03:19:23;15.07;;;1.00;;
68229;SDS011;55048;52.220;5.160;2023-08-20T03:21:48;6.80;;;1.10;;
68229;SDS011;55048;52.220;5.160;2023-08-20T03:24:14;12.75;;;1.45;;
68229;SDS011;55048;52.220;5.160;2023-08-20T03:26:39;7.93;;;1.10;;
68229;SDS011;55048;52.220;5.160;2023-08-20T03:29:05;11.77;;;1.20;;
68229;SDS011;55048;52.220;5.160;2023-08-20T03:31:31;6.05;;;1.20;;
68229;SDS011;55048;52.220;5.160;2023-08-20T03:33:56;8.35;;;1.52;;
68229;SDS011;55048;52.220;5.160;2023-08-20T03:36:22;8.75;;;0.93;;
68229;SDS011;55048;52.220;5.160;2023-08-20T03:38:47;7.05;;;1.02;;
68229;SDS011;55048;52.220;5.160;2023-08-20T03:41:13;10.65;;;1.10;;
68229;SDS011;55048;52.220;5.160;2023-08-20T03:43:39;4.25;;;1.00;;
68229;SDS011;55048;52.220;5.160;2023-08-20T03:46:04;6.88;;;0.90;;
68229;SDS011;55048;52.220;5.160;2023-08-20T03:48:30;7.00;;;0.95;;
68229;SDS011;55048;52.220;5.160;2023-08-20T03:50:55;10.73;;;1.10;;
68229;SDS011;55048;52.220;5.160;2023-08-20T03:53:21;5.95;;;1.00;;
68229;SDS011;55048;52.220;5.160;2023-08-20T03:55:51;8.68;;;1.02;;
68229;SDS011;55048;52.220;5.160;2023-08-20T03:58:16;6.37;;;0.93;;
68229;SDS011;55048;52.220;5.160;2023-08-20T04:00:42;6.93;;;0.80;;
68229;SDS011;55048;52.220;5.160;2023-08-20T04:03:08;6.90;;;1.10;;
68229;SDS011;55048;52.220;5.160;2023-08-20T04:05:37;7.22;;;1.20;;
68229;SDS011;55048;52.220;5.160;2023-08-20T04:08:06;7.60;;;1.20;;
68229;SDS011;55048;52.220;5.160;2023-08-20T04:10:32;9.32;;;1.10;;
68229;SDS011;55048;52.220;5.160;2023-08-20T04:12:58;5.40;;;1.13;;
68229;SDS011;55048;52.220;5.160;2023-08-20T04:15:24;3.35;;;1.25;;
68229;SDS011;55048;52.220;5.160;2023-08-20T04:17:49;7.90;;;1.38;;
68229;SDS011;55048;52.220;5.160;2023-08-20T04:20:15;6.43;;;1.00;;
68229;SDS011;55048;52.220;5.160;2023-08-20T04:22:41;7.80;;;1.05;;
68229;SDS011;55048;52.220;5.160;2023-08-20T04:25:07;7.90;;;1.30;;
68229;SDS011;55048;52.220;5.160;2023-08-20T04:27:32;7.78;;;1.13;;
68229;SDS011;55048;52.220;5.160;2023-08-20T04:29:58;6.43;;;1.30;;
68229;SDS011;55048;52.220;5.160;2023-08-20T04:32:24;8.65;;;1.20;;
68229;SDS011;55048;52.220;5.160;2023-08-20T04:34:49;9.82;;;1.40;;
68229;SDS011;55048;52.220;5.160;2023-08-20T04:37:19;8.93;;;1.40;;
68229;SDS011;55048;52.220;5.160;2023-08-20T04:39:44;7.00;;;1.40;;
68229;SDS011;55048;52.220;5.160;2023-08-20T04:42:10;11.70;;;1.30;;
68229;SDS011;55048;52.220;5.160;2023-08-20T04:44:35;5.63;;;1.27;;
68229;SDS011;55048;52.220;5.160;2023-08-20T04:47:01;6.55;;;1.25;;
68229;SDS011;55048;52.220;5.160;2023-08-20T04:49:29;6.80;;;1.17;;
68229;SDS011;55048;52.220;5.160;2023-08-20T04:51:55;7.85;;;1.70;;
68229;SDS011;55048;52.220;5.160;2023-08-20T04:54:20;4.78;;;1.17;;
68229;SDS011;55048;52.220;5.160;2023-08-20T04:56:46;9.73;;;1.30;;
68229;SDS011;55048;52.220;5.160;2023-08-20T04:59:11;9.65;;;1.30;;
68229;SDS011;55048;52.220;5.160;2023-08-20T05:01:49;6.60;;;1.17;;
68229;SDS011;55048;52.220;5.160;2023-08-20T05:04:17;9.75;;;1.30;;
68229;SDS011;55048;52.220;5.160;2023-08-20T05:06:42;8.88;;;1.10;;
68229;SDS011;55048;52.220;5.160;2023-08-20T05:09:08;5.13;;;1.40;;
68229;SDS011;55048;52.220;5.160;2023-08-20T05:11:33;11.05;;;1.50;;
68229;SDS011;55048;52.220;5.160;2023-08-20T05:13:59;10.60;;;1.58;;
68229;SDS011;55048;52.220;5.160;2023-08-20T05:16:25;7.45;;;1.23;;
68229;SDS011;55048;52.220;5.160;2023-08-20T05:18:50;9.45;;;1.20;;
68229;SDS011;55048;52.220;5.160;2023-08-20T05:21:16;11.57;;;1.42;;
68229;SDS011;55048;52.220;5.160;2023-08-20T05:23:41;7.25;;;1.50;;
68229;SDS011;55048;52.220;5.160;2023-08-20T05:26:07;6.70;;;1.65;;
68229;SDS011;55048;52.220;5.160;2023-08-20T05:28:33;7.65;;;1.30;;
68229;SDS011;55048;52.220;5.160;2023-08-20T05:30:59;10.77;;;1.60;;
68229;SDS011;55048;52.220;5.160;2023-08-20T05:33:25;8.88;;;1.48;;
68229;SDS011;55048;52.220;5.160;2023-08-20T05:35:52;10.93;;;1.45;;
68229;SDS011;55048;52.220;5.160;2023-08-20T05:38:18;7.88;;;1.40;;
68229;SDS011;55048;52.220;5.160;2023-08-20T05:40:45;8.82;;;1.30;;
68229;SDS011;55048;52.220;5.160;2023-08-20T05:43:10;22.25;;;1.80;;
68229;SDS011;55048;52.220;5.160;2023-08-20T05:45:36;17.58;;;2.10;;
68229;SDS011;55048;52.220;5.160;2023-08-20T05:48:02;16.48;;;1.95;;
68229;SDS011;55048;52.220;5.160;2023-08-20T05:50:27;8.15;;;1.65;;
68229;SDS011;55048;52.220;5.160;2023-08-20T05:52:53;14.75;;;2.28;;
68229;SDS011;55048;52.220;5.160;2023-08-20T05:55:20;16.05;;;2.03;;
68229;SDS011;55048;52.220;5.160;2023-08-20T05:57:45;9.05;;;1.65;;
68229;SDS011;55048;52.220;5.160;2023-08-20T06:00:11;8.60;;;1.38;;
68229;SDS011;55048;52.220;5.160;2023-08-20T06:02:40;9.63;;;1.80;;
68229;SDS011;55048;52.220;5.160;2023-08-20T06:05:06;9.77;;;1.80;;
68229;SDS011;55048;52.220;5.160;2023-08-20T06:07:32;5.45;;;1.30;;
68229;SDS011;55048;52.220;5.160;2023-08-20T06:09:57;9.30;;;1.58;;
68229;SDS011;55048;52.220;5.160;2023-08-20T06:12:23;12.73;;;1.50;;
68229;SDS011;55048;52.220;5.160;2023-08-20T06:14:49;10.15;;;1.52;;
68229;SDS011;55048;52.220;5.160;2023-08-20T06:17:14;7.00;;;1.38;;
68229;SDS011;55048;52.220;5.160;2023-08-20T06:19:40;7.70;;;1.40;;
68229;SDS011;55048;52.220;5.160;2023-08-20T06:22:05;8.45;;;1.38;;
68229;SDS011;55048;52.220;5.160;2023-08-20T06:24:31;9.18;;;1.48;;
68229;SDS011;55048;52.220;5.160;2023-08-20T06:26:56;9.13;;;1.20;;
68229;SDS011;55048;52.220;5.160;2023-08-20T06:29:22;9.73;;;1.70;;
68229;SDS011;55048;52.220;5.160;2023-08-20T06:31:47;14.95;;;1.83;;
68229;SDS011;55048;52.220;5.160;2023-08-20T06:34:14;10.23;;;1.45;;
68229;SDS011;55048;52.220;5.160;2023-08-20T06:36:39;10.80;;;1.15;;
68229;SDS011;55048;52.220;5.160;2023-08-20T06:39:05;11.82;;;1.48;;
68229;SDS011;55048;52.220;5.160;2023-08-20T06:41:30;10.60;;;1.23;;
68229;SDS011;55048;52.220;5.160;2023-08-20T06:43:56;9.55;;;1.52;;
68229;SDS011;55048;52.220;5.160;2023-08-20T06:46:21;13.40;;;1.58;;
68229;SDS011;55048;52.220;5.160;2023-08-20T06:48:47;11.25;;;1.70;;
68229;SDS011;55048;52.220;5.160;2023-08-20T06:51:13;7.70;;;1.27;;
68229;SDS011;55048;52.220;5.160;2023-08-20T06:53:40;8.45;;;1.27;;
68229;SDS011;55048;52.220;5.160;2023-08-20T06:56:07;7.10;;;1.13;;
68229;SDS011;55048;52.220;5.160;2023-08-20T06:58:34;8.55;;;1.30;;
68229;SDS011;55048;52.220;5.160;2023-08-20T07:00:59;11.63;;;1.13;;
68229;SDS011;55048;52.220;5.160;2023-08-20T07:03:41;11.52;;;1.50;;
68229;SDS011;55048;52.220;5.160;2023-08-20T07:06:09;12.30;;;1.10;;
68229;SDS011;55048;52.220;5.160;2023-08-20T07:08:36;11.25;;;1.70;;
68229;SDS011;55048;52.220;5.160;2023-08-20T07:11:03;13.18;;;1.13;;
68229;SDS011;55048;52.220;5.160;2023-08-20T07:13:29;6.60;;;0.93;;
68229;SDS011;55048;52.220;5.160;2023-08-20T07:15:54;15.88;;;1.27;;
68229;SDS011;55048;52.220;5.160;2023-08-20T07:18:20;17.65;;;1.63;;
68229;SDS011;55048;52.220;5.160;2023-08-20T07:20:45;11.45;;;1.30;;
68229;SDS011;55048;52.220;5.160;2023-08-20T07:23:11;9.85;;;1.05;;
68229;SDS011;55048;52.220;5.160;2023-08-20T07:25:37;12.60;;;1.40;;
68229;SDS011;55048;52.220;5.160;2023-08-20T07:28:04;14.38;;;1.42;;
68229;SDS011;55048;52.220;5.160;2023-08-20T07:30:30;14.98;;;1.35;;
68229;SDS011;55048;52.220;5.160;2023-08-20T07:32:56;10.15;;;1.00;;
68229;SDS011;55048;52.220;5.160;2023-08-20T07:35:21;10.48;;;0.98;;
68229;SDS011;55048;52.220;5.160;2023-08-20T07:37:47;7.32;;;1.10;;
68229;SDS011;55048;52.220;5.160;2023-08-20T07:40:13;13.45;;;1.40;;
68229;SDS011;55048;52.220;5.160;2023-08-20T07:42:40;10.30;;;1.15;;
68229;SDS011;55048;52.220;5.160;2023-08-20T07:45:06;7.50;;;0.98;;
68229;SDS011;55048;52.220;5.160;2023-08-20T07:47:33;9.57;;;1.23;;
68229;SDS011;55048;52.220;5.160;2023-08-20T07:49:59;14.10;;;1.50;;
68229;SDS011;55048;52.220;5.160;2023-08-20T07:52:24;8.63;;;1.27;;
68229;SDS011;55048;52.220;5.160;2023-08-20T07:54:50;10.80;;;1.20;;
68229;SDS011;55048;52.220;5.160;2023-08-20T07:57:15;8.52;;;0.90;;
68229;SDS011;55048;52.220;5.160;2023-08-20T07:59:41;7.75;;;1.00;;
68229;SDS011;55048;52.220;5.160;2023-08-20T08:02:06;8.90;;;1.02;;
68229;SDS011;55048;52.220;5.160;2023-08-20T08:04:33;14.40;;;1.20;;
68229;SDS011;55048;52.220;5.160;2023-08-20T08:06:59;11.55;;;1.40;;
68229;SDS011;55048;52.220;5.160;2023-08-20T08:09:28;10.73;;;1.10;;
68229;SDS011;55048;52.220;5.160;2023-08-20T08:11:55;13.55;;;1.30;;
68229;SDS011;55048;52.220;5.160;2023-08-20T08:14:21;8.73;;;1.05;;
68229;SDS011;55048;52.220;5.160;2023-08-20T08:16:47;6.28;;;1.10;;
68229;SDS011;55048;52.220;5.160;2023-08-20T08:19:12;10.00;;;1.40;;
68229;SDS011;55048;52.220;5.160;2023-08-20T08:21:38;11.07;;;1.40;;
68229;SDS011;55048;52.220;5.160;2023-08-20T08:24:04;7.00;;;1.25;;
68229;SDS011;55048;52.220;5.160;2023-08-20T08:26:30;12.07;;;1.42;;
68229;SDS011;55048;52.220;5.160;2023-08-20T08:28:56;5.68;;;1.00;;
68229;SDS011;55048;52.220;5.160;2023-08-20T08:31:21;11.10;;;1.50;;
68229;SDS011;55048;52.220;5.160;2023-08-20T08:33:48;12.25;;;1.35;;
68229;SDS011;55048;52.220;5.160;2023-08-20T08:36:13;9.75;;;1.15;;
68229;SDS011;55048;52.220;5.160;2023-08-20T08:38:40;11.57;;;1.23;;
68229;SDS011;55048;52.220;5.160;2023-08-20T08:41:06;8.32;;;0.90;;
68229;SDS011;55048;52.220;5.160;2023-08-20T08:43:35;7.28;;;1.10;;
68229;SDS011;55048;52.220;5.160;2023-08-20T08:46:03;8.88;;;1.02;;
68229;SDS011;55048;52.220;5.160;2023-08-20T08:48:43;6.00;;;0.70;;
68229;SDS011;55048;52.220;5.160;2023-08-20T08:51:10;9.05;;;0.90;;
68229;SDS011;55048;52.220;5.160;2023-08-20T08:53:37;9.07;;;1.10;;
68229;SDS011;55048;52.220;5.160;2023-08-20T08:56:03;8.35;;;1.20;;
68229;SDS011;55048;52.220;5.160;2023-08-20T08:58:30;7.43;;;0.90;;
68229;SDS011;55048;52.220;5.160;2023-08-20T09:00:56;15.77;;;1.30;;
68229;SDS011;55048;52.220;5.160;2023-08-20T09:03:21;10.32;;;0.90;;
68229;SDS011;55048;52.220;5.160;2023-08-20T09:05:49;6.30;;;1.23;;
68229;SDS011;55048;52.220;5.160;2023-08-20T09:08:20;8.52;;;1.10;;
68229;SDS011;55048;52.220;5.160;2023-08-20T09:10:45;8.95;;;0.82;;
68229;SDS011;55048;52.220;5.160;2023-08-20T09:13:11;5.18;;;0.70;;
68229;SDS011;55048;52.220;5.160;2023-08-20T09:15:36;5.93;;;0.70;;
68229;SDS011;55048;52.220;5.160;2023-08-20T09:18:02;7.13;;;0.82;;
68229;SDS011;55048;52.220;5.160;2023-08-20T09:20:37;6.20;;;0.75;;
68229;SDS011;55048;52.220;5.160;2023-08-20T09:23:04;7.40;;;0.80;;
68229;SDS011;55048;52.220;5.160;2023-08-20T09:25:35;7.60;;;1.00;;
68229;SDS011;55048;52.220;5.160;2023-08-20T09:28:04;7.97;;;0.90;;
68229;SDS011;55048;52.220;5.160;2023-08-20T09:30:29;8.48;;;1.08;;
68229;SDS011;55048;52.220;5.160;2023-08-20T09:33:09;11.18;;;1.10;;
68229;SDS011;55048;52.220;5.160;2023-08-20T09:35:36;8.88;;;0.90;;
68229;SDS011;55048;52.220;5.160;2023-08-20T09:38:03;5.95;;;0.75;;
68229;SDS011;55048;52.220;5.160;2023-08-20T09:40:29;5.68;;;0.80;;
68229;SDS011;55048;52.220;5.160;2023-08-20T09:42:55;4.57;;;0.80;;
68229;SDS011;55048;52.220;5.160;2023-08-20T09:45:23;6.50;;;1.08;;
68229;SDS011;55048;52.220;5.160;2023-08-20T09:47:50;7.07;;;0.60;;
68229;SDS011;55048;52.220;5.160;2023-08-20T09:50:20;12.52;;;1.10;;
68229;SDS011;55048;52.220;5.160;2023-08-20T09:52:58;7.45;;;1.30;;
68229;SDS011;55048;52.220;5.160;2023-08-20T09:55:35;11.10;;;0.82;;
68229;SDS011;55048;52.220;5.160;2023-08-20T09:58:03;3.60;;;0.60;;
68229;SDS011;55048;52.220;5.160;2023-08-20T10:00:30;6.68;;;0.68;;
68229;SDS011;55048;52.220;5.160;2023-08-20T10:02:57;6.13;;;0.80;;
68229;SDS011;55048;52.220;5.160;2023-08-20T10:05:23;6.55;;;0.70;;
68229;SDS011;55048;52.220;5.160;2023-08-20T10:07:50;6.57;;;0.70;;
68229;SDS011;55048;52.220;5.160;2023-08-20T10:10:15;5.68;;;0.70;;
68229;SDS011;55048;52.220;5.160;2023-08-20T10:12:42;5.05;;;0.98;;
68229;SDS011;55048;52.220;5.160;2023-08-20T10:15:10;8.13;;;0.90;;
68229;SDS011;55048;52.220;5.160;2023-08-20T10:17:39;5.65;;;0.60;;
68229;SDS011;55048;52.220;5.160;2023-08-20T10:20:06;6.63;;;0.65;;
68229;SDS011;55048;52.220;5.160;2023-08-20T10:22:35;2.45;;;0.50;;
68229;SDS011;55048;52.220;5.160;2023-08-20T10:25:02;7.40;;;0.73;;
68229;SDS011;55048;52.220;5.160;2023-08-20T10:29:58;3.80;;;0.45;;
68229;SDS011;55048;52.220;5.160;2023-08-20T10:35:09;4.25;;;0.50;;
68229;SDS011;55048;52.220;5.160;2023-08-20T10:37:34;3.45;;;0.60;;
68229;SDS011;55048;52.220;5.160;2023-08-20T10:40:01;5.07;;;0.70;;
68229;SDS011;55048;52.220;5.160;2023-08-20T10:42:27;7.13;;;0.75;;
68229;SDS011;55048;52.220;5.160;2023-08-20T10:44:59;6.53;;;0.63;;
68229;SDS011;55048;52.220;5.160;2023-08-20T10:47:26;4.47;;;0.63;;
68229;SDS011;55048;52.220;5.160;2023-08-20T10:50:07;4.72;;;0.73;;
68229;SDS011;55048;52.220;5.160;2023-08-20T10:52:39;7.43;;;0.65;;
68229;SDS011;55048;52.220;5.160;2023-08-20T10:55:06;5.68;;;0.60;;
68229;SDS011;55048;52.220;5.160;2023-08-20T10:57:35;6.43;;;0.85;;
68229;SDS011;55048;52.220;5.160;2023-08-20T11:00:03;4.10;;;0.70;;
68229;SDS011;55048;52.220;5.160;2023-08-20T11:02:39;5.93;;;0.75;;
68229;SDS011;55048;52.220;5.160;2023-08-20T11:05:19;4.53;;;0.70;;
68229;SDS011;55048;52.220;5.160;2023-08-20T11:07:49;4.88;;;0.68;;
68229;SDS011;55048;52.220;5.160;2023-08-20T11:10:16;4.22;;;0.68;;
68229;SDS011;55048;52.220;5.160;2023-08-20T11:12:42;6.93;;;0.95;;
68229;SDS011;55048;52.220;5.160;2023-08-20T11:15:09;5.20;;;0.60;;
68229;SDS011;55048;52.220;5.160;2023-08-20T11:17:40;5.30;;;0.65;;
68229;SDS011;55048;52.220;5.160;2023-08-20T11:20:10;4.47;;;0.60;;
68229;SDS011;55048;52.220;5.160;2023-08-20T11:22:39;3.17;;;0.47;;
68229;SDS011;55048;52.220;5.160;2023-08-20T11:25:06;6.63;;;0.80;;
68229;SDS011;55048;52.220;5.160;2023-08-20T11:27:39;9.65;;;0.80;;
68229;SDS011;55048;52.220;5.160;2023-08-20T11:30:06;7.03;;;0.90;;
68229;SDS011;55048;52.220;5.160;2023-08-20T11:32:32;4.70;;;0.65;;
68229;SDS011;55048;52.220;5.160;2023-08-20T11:34:58;6.45;;;0.50;;
68229;SDS011;55048;52.220;5.160;2023-08-20T11:37:24;6.03;;;0.75;;
68229;SDS011;55048;52.220;5.160;2023-08-20T11:39:50;3.05;;;0.50;;
68229;SDS011;55048;52.220;5.160;2023-08-20T11:42:16;5.70;;;0.70;;
68229;SDS011;55048;52.220;5.160;2023-08-20T11:44:46;4.82;;;0.57;;
68229;SDS011;55048;52.220;5.160;2023-08-20T11:47:15;4.05;;;0.60;;
68229;SDS011;55048;52.220;5.160;2023-08-20T11:49:41;4.80;;;0.70;;
68229;SDS011;55048;52.220;5.160;2023-08-20T11:52:07;1.63;;;0.38;;
68229;SDS011;55048;52.220;5.160;2023-08-20T11:54:32;4.30;;;0.50;;
68229;SDS011;55048;52.220;5.160;2023-08-20T11:57:05;4.63;;;0.60;;
68229;SDS011;55048;52.220;5.160;2023-08-20T11:59:31;4.60;;;0.80;;
68229;SDS011;55048;52.220;5.160;2023-08-20T12:01:58;6.38;;;0.60;;
68229;SDS011;55048;52.220;5.160;2023-08-20T12:04:26;3.13;;;0.60;;
68229;SDS011;55048;52.220;5.160;2023-08-20T12:09:30;5.85;;;0.80;;
68229;SDS011;55048;52.220;5.160;2023-08-20T12:11:55;5.88;;;0.90;;
68229;SDS011;55048;52.220;5.160;2023-08-20T12:14:21;3.28;;;0.52;;
68229;SDS011;55048;52.220;5.160;2023-08-20T12:16:47;3.63;;;0.75;;
68229;SDS011;55048;52.220;5.160;2023-08-20T12:19:13;3.58;;;0.70;;
68229;SDS011;55048;52.220;5.160;2023-08-20T12:21:39;5.70;;;0.65;;
68229;SDS011;55048;52.220;5.160;2023-08-20T12:24:05;3.70;;;0.60;;
68229;SDS011;55048;52.220;5.160;2023-08-20T12:26:31;5.05;;;0.60;;
68229;SDS011;55048;52.220;5.160;2023-08-20T12:28:56;7.30;;;0.80;;
68229;SDS011;55048;52.220;5.160;2023-08-20T12:31:22;4.28;;;0.50;;
68229;SDS011;55048;52.220;5.160;2023-08-20T12:33:47;4.43;;;0.50;;
68229;SDS011;55048;52.220;5.160;2023-08-20T12:36:13;4.45;;;0.50;;
68229;SDS011;55048;52.220;5.160;2023-08-20T12:38:38;7.40;;;0.50;;
68229;SDS011;55048;52.220;5.160;2023-08-20T12:41:03;6.20;;;0.50;;
68229;SDS011;55048;52.220;5.160;2023-08-20T12:43:30;3.85;;;0.50;;
68229;SDS011;55048;52.220;5.160;2023-08-20T12:45:55;4.68;;;0.45;;
68229;SDS011;55048;52.220;5.160;2023-08-20T12:48:21;5.30;;;0.60;;
68229;SDS011;55048;52.220;5.160;2023-08-20T12:50:46;8.25;;;0.60;;
68229;SDS011;55048;52.220;5.160;2023-08-20T12:53:12;4.95;;;0.50;;
68229;SDS011;55048;52.220;5.160;2023-08-20T12:55:38;2.75;;;0.63;;
68229;SDS011;55048;52.220;5.160;2023-08-20T12:58:03;3.97;;;0.60;;
68229;SDS011;55048;52.220;5.160;2023-08-20T13:00:29;4.20;;;0.50;;
68229;SDS011;55048;52.220;5.160;2023-08-20T13:02:55;3.38;;;0.52;;
68229;SDS011;55048;52.220;5.160;2023-08-20T13:05:24;5.60;;;0.75;;
68229;SDS011;55048;52.220;5.160;2023-08-20T13:07:52;5.00;;;0.50;;
68229;SDS011;55048;52.220;5.160;2023-08-20T13:10:18;3.75;;;0.40;;
68229;SDS011;55048;52.220;5.160;2023-08-20T13:12:47;4.00;;;0.73;;
68229;SDS011;55048;52.220;5.160;2023-08-20T13:15:15;5.32;;;0.60;;
68229;SDS011;55048;52.220;5.160;2023-08-20T13:17:42;4.20;;;0.40;;
68229;SDS011;55048;52.220;5.160;2023-08-20T13:20:08;4.60;;;0.60;;
68229;SDS011;55048;52.220;5.160;2023-08-20T13:22:33;6.50;;;0.57;;
68229;SDS011;55048;52.220;5.160;2023-08-20T13:24:59;4.47;;;0.50;;
68229;SDS011;55048;52.220;5.160;2023-08-20T13:27:24;3.20;;;0.47;;
68229;SDS011;55048;52.220;5.160;2023-08-20T13:29:50;2.80;;;0.40;;
68229;SDS011;55048;52.220;5.160;2023-08-20T13:32:16;5.22;;;0.68;;
68229;SDS011;55048;52.220;5.160;2023-08-20T13:34:41;5.70;;;0.60;;
68229;SDS011;55048;52.220;5.160;2023-08-20T13:37:07;4.03;;;0.40;;
68229;SDS011;55048;52.220;5.160;2023-08-20T13:39:32;4.53;;;0.70;;
68229;SDS011;55048;52.220;5.160;2023-08-20T13:41:58;2.45;;;0.50;;
68229;SDS011;55048;52.220;5.160;2023-08-20T13:44:23;5.30;;;0.55;;
68229;SDS011;55048;52.220;5.160;2023-08-20T13:46:49;5.68;;;0.70;;
68229;SDS011;55048;52.220;5.160;2023-08-20T13:49:14;2.83;;;0.60;;
68229;SDS011;55048;52.220;5.160;2023-08-20T13:51:40;3.50;;;0.40;;
68229;SDS011;55048;52.220;5.160;2023-08-20T13:54:05;3.97;;;0.50;;
68229;SDS011;55048;52.220;5.160;2023-08-20T13:56:30;6.70;;;0.70;;
68229;SDS011;55048;52.220;5.160;2023-08-20T13:58:56;2.42;;;0.57;;
68229;SDS011;55048;52.220;5.160;2023-08-20T14:01:22;4.45;;;0.40;;
68229;SDS011;55048;52.220;5.160;2023-08-20T14:03:47;3.88;;;0.50;;
68229;SDS011;55048;52.220;5.160;2023-08-20T14:06:13;1.52;;;0.30;;
68229;SDS011;55048;52.220;5.160;2023-08-20T14:08:38;3.15;;;0.60;;
68229;SDS011;55048;52.220;5.160;2023-08-20T14:11:04;3.47;;;0.40;;
68229;SDS011;55048;52.220;5.160;2023-08-20T14:13:29;2.28;;;0.30;;
68229;SDS011;55048;52.220;5.160;2023-08-20T14:15:55;5.85;;;0.50;;
68229;SDS011;55048;52.220;5.160;2023-08-20T14:18:20;2.67;;;0.50;;
68229;SDS011;55048;52.220;5.160;2023-08-20T14:20:46;4.93;;;0.50;;
68229;SDS011;55048;52.220;5.160;2023-08-20T14:23:11;4.28;;;0.40;;
68229;SDS011;55048;52.220;5.160;2023-08-20T14:25:37;3.85;;;0.50;;
68229;SDS011;55048;52.220;5.160;2023-08-20T14:28:05;3.47;;;0.40;;
68229;SDS011;55048;52.220;5.160;2023-08-20T14:30:31;3.38;;;0.50;;
68229;SDS011;55048;52.220;5.160;2023-08-20T14:33:00;3.42;;;0.43;;
68229;SDS011;55048;52.220;5.160;2023-08-20T14:35:26;3.45;;;0.50;;
68229;SDS011;55048;52.220;5.160;2023-08-20T14:37:52;3.35;;;0.47;;
68229;SDS011;55048;52.220;5.160;2023-08-20T14:40:19;3.85;;;0.43;;
68229;SDS011;55048;52.220;5.160;2023-08-20T14:42:44;4.53;;;0.40;;
68229;SDS011;55048;52.220;5.160;2023-08-20T14:45:10;4.32;;;0.63;;
68229;SDS011;55048;52.220;5.160;2023-08-20T14:47:35;5.15;;;0.60;;
68229;SDS011;55048;52.220;5.160;2023-08-20T14:50:01;6.35;;;0.52;;
68229;SDS011;55048;52.220;5.160;2023-08-20T14:52:27;5.00;;;0.45;;
68229;SDS011;55048;52.220;5.160;2023-08-20T14:54:52;3.92;;;1.20;;